sensor_id;sensor_type;location;lat;lon;timestamp;P1;durP1;ratioP1;P2;durP2;ratioP2
56373;SDS011;58212;47.034;7.376;2023-02-28T00:00:13;5.65;;;5.07;;
56373;SDS011;58212;47.034;7.376;2023-02-28T00:02:41;5.35;;;4.80;;
56373;SDS011;58212;47.034;7.376;2023-02-28T00:05:09;6.57;;;5.45;;
56373;SDS011;58212;47.034;7.376;2023-02-28T00:07:39;5.60;;;4.95;;
56373;SDS011;58212;47.034;7.376;2023-02-28T00:10:07;5.47;;;4.43;;
56373;SDS011;58212;47.034;7.376;2023-02-28T00:12:37;6.50;;;4.40;;
56373;SDS011;58212;47.034;7.376;2023-02-28T00:15:05;6.10;;;5.15;;
56373;SDS011;58212;47.034;7.376;2023-02-28T00:17:35;6.00;;;4.97;;
56373;SDS011;58212;47.034;7.376;2023-02-28T00:20:03;5.47;;;4.97;;
56373;SDS011;58212;47.034;7.376;2023-02-28T00:22:34;5.32;;;4.60;;
56373;SDS011;58212;47.034;7.376;2023-02-28T00:25:02;5.35;;;4.85;;
56373;SDS011;58212;47.034;7.376;2023-02-28T00:27:57;5.53;;;4.72;;
56373;SDS011;58212;47.034;7.376;2023-02-28T00:30:24;5.70;;;4.90;;
56373;SDS011;58212;47.034;7.376;2023-02-28T00:32:51;5.68;;;4.95;;
56373;SDS011;58212;47.034;7.376;2023-02-28T00:35:20;4.90;;;4.40;;
56373;SDS011;58212;47.034;7.376;2023-02-28T00:37:47;5.53;;;4.88;;
56373;SDS011;58212;47.034;7.376;2023-02-28T00:40:16;6.82;;;4.70;;
56373;SDS011;58212;47.034;7.376;2023-02-28T00:42:43;5.00;;;4.50;;
56373;SDS011;58212;47.034;7.376;2023-02-28T00:45:10;6.45;;;4.28;;
56373;SDS011;58212;47.034;7.376;2023-02-28T00:47:38;4.53;;;4.13;;
56373;SDS011;58212;47.034;7.376;2023-02-28T00:50:05;5.30;;;4.70;;
56373;SDS011;58212;47.034;7.376;2023-02-28T00:52:35;7.10;;;4.80;;
56373;SDS011;58212;47.034;7.376;2023-02-28T00:55:03;5.47;;;4.60;;
56373;SDS011;58212;47.034;7.376;2023-02-28T00:57:33;6.95;;;5.22;;
56373;SDS011;58212;47.034;7.376;2023-02-28T01:00:00;6.75;;;5.10;;
56373;SDS011;58212;47.034;7.376;2023-02-28T01:02:28;5.55;;;4.80;;
56373;SDS011;58212;47.034;7.376;2023-02-28T01:04:57;5.40;;;4.50;;
56373;SDS011;58212;47.034;7.376;2023-02-28T01:07:24;5.88;;;5.00;;
56373;SDS011;58212;47.034;7.376;2023-02-28T01:09:53;5.13;;;4.40;;
56373;SDS011;58212;47.034;7.376;2023-02-28T01:12:20;5.32;;;4.82;;
56373;SDS011;58212;47.034;7.376;2023-02-28T01:14:51;5.95;;;4.65;;
56373;SDS011;58212;47.034;7.376;2023-02-28T01:17:43;5.53;;;4.53;;
56373;SDS011;58212;47.034;7.376;2023-02-28T01:20:11;5.15;;;4.60;;
56373;SDS011;58212;47.034;7.376;2023-02-28T01:22:40;4.95;;;4.45;;
56373;SDS011;58212;47.034;7.376;2023-02-28T01:25:07;5.63;;;4.97;;
56373;SDS011;58212;47.034;7.376;2023-02-28T01:27:36;5.15;;;4.65;;
56373;SDS011;58212;47.034;7.376;2023-02-28T01:30:06;6.65;;;4.78;;
56373;SDS011;58212;47.034;7.376;2023-02-28T01:32:35;5.95;;;5.30;;
56373;SDS011;58212;47.034;7.376;2023-02-28T01:35:02;4.95;;;4.25;;
56373;SDS011;58212;47.034;7.376;2023-02-28T01:37:54;6.53;;;5.28;;
56373;SDS011;58212;47.034;7.376;2023-02-28T01:40:23;5.30;;;4.75;;
56373;SDS011;58212;47.034;7.376;2023-02-28T01:42:51;6.25;;;4.93;;
56373;SDS011;58212;47.034;7.376;2023-02-28T01:45:21;5.40;;;4.88;;
56373;SDS011;58212;47.034;7.376;2023-02-28T01:47:54;5.30;;;4.80;;
56373;SDS011;58212;47.034;7.376;2023-02-28T01:50:25;5.97;;;5.15;;
56373;SDS011;58212;47.034;7.376;2023-02-28T01:52:55;7.60;;;5.53;;
56373;SDS011;58212;47.034;7.376;2023-02-28T01:55:26;5.85;;;5.30;;
56373;SDS011;58212;47.034;7.376;2023-02-28T01:57:58;7.45;;;4.90;;
56373;SDS011;58212;47.034;7.376;2023-02-28T02:00:29;5.30;;;4.80;;
56373;SDS011;58212;47.034;7.376;2023-02-28T02:02:57;6.78;;;5.35;;
56373;SDS011;58212;47.034;7.376;2023-02-28T02:05:27;7.00;;;5.60;;
56373;SDS011;58212;47.034;7.376;2023-02-28T02:07:58;9.15;;;5.55;;
56373;SDS011;58212;47.034;7.376;2023-02-28T02:10:31;6.53;;;5.65;;
56373;SDS011;58212;47.034;7.376;2023-02-28T02:13:08;5.93;;;5.43;;
56373;SDS011;58212;47.034;7.376;2023-02-28T02:15:54;5.50;;;4.93;;
56373;SDS011;58212;47.034;7.376;2023-02-28T02:18:30;5.45;;;4.93;;
56373;SDS011;58212;47.034;7.376;2023-02-28T02:21:18;6.05;;;5.35;;
56373;SDS011;58212;47.034;7.376;2023-02-28T02:24:32;6.35;;;5.75;;
56373;SDS011;58212;47.034;7.376;2023-02-28T02:27:23;6.63;;;5.60;;
56373;SDS011;58212;47.034;7.376;2023-02-28T02:30:08;6.03;;;5.35;;
56373;SDS011;58212;47.034;7.376;2023-02-28T02:35:52;7.38;;;5.80;;
56373;SDS011;58212;47.034;7.376;2023-02-28T02:38:24;7.05;;;6.10;;
56373;SDS011;58212;47.034;7.376;2023-02-28T02:41:02;6.35;;;5.85;;
56373;SDS011;58212;47.034;7.376;2023-02-28T02:43:39;7.50;;;6.80;;
56373;SDS011;58212;47.034;7.376;2023-02-28T02:46:15;6.35;;;5.75;;
56373;SDS011;58212;47.034;7.376;2023-02-28T02:48:46;6.75;;;6.00;;
56373;SDS011;58212;47.034;7.376;2023-02-28T02:51:16;6.38;;;5.78;;
56373;SDS011;58212;47.034;7.376;2023-02-28T02:53:49;6.65;;;5.50;;
56373;SDS011;58212;47.034;7.376;2023-02-28T02:56:21;6.57;;;6.05;;
56373;SDS011;58212;47.034;7.376;2023-02-28T02:59:17;5.85;;;5.18;;
56373;SDS011;58212;47.034;7.376;2023-02-28T03:01:48;6.40;;;5.80;;
56373;SDS011;58212;47.034;7.376;2023-02-28T03:04:22;6.25;;;5.65;;
56373;SDS011;58212;47.034;7.376;2023-02-28T03:06:52;6.22;;;5.63;;
56373;SDS011;58212;47.034;7.376;2023-02-28T03:09:20;6.75;;;6.15;;
56373;SDS011;58212;47.034;7.376;2023-02-28T03:11:48;6.72;;;6.03;;
56373;SDS011;58212;47.034;7.376;2023-02-28T03:14:23;7.57;;;6.00;;
56373;SDS011;58212;47.034;7.376;2023-02-28T03:16:59;6.38;;;5.80;;
56373;SDS011;58212;47.034;7.376;2023-02-28T03:19:47;6.70;;;6.05;;
56373;SDS011;58212;47.034;7.376;2023-02-28T03:22:32;6.68;;;6.00;;
56373;SDS011;58212;47.034;7.376;2023-02-28T03:25:16;7.97;;;6.30;;
56373;SDS011;58212;47.034;7.376;2023-02-28T03:28:00;6.75;;;6.05;;
56373;SDS011;58212;47.034;7.376;2023-02-28T03:30:33;6.78;;;6.18;;
56373;SDS011;58212;47.034;7.376;2023-02-28T03:36:27;7.07;;;6.00;;
56373;SDS011;58212;47.034;7.376;2023-02-28T03:38:58;7.13;;;6.32;;
56373;SDS011;58212;47.034;7.376;2023-02-28T03:41:30;6.80;;;6.20;;
56373;SDS011;58212;47.034;7.376;2023-02-28T03:44:03;8.07;;;7.07;;
56373;SDS011;58212;47.034;7.376;2023-02-28T03:46:33;7.22;;;6.40;;
56373;SDS011;58212;47.034;7.376;2023-02-28T03:49:04;7.40;;;6.07;;
56373;SDS011;58212;47.034;7.376;2023-02-28T03:51:37;6.70;;;6.10;;
56373;SDS011;58212;47.034;7.376;2023-02-28T03:54:15;5.95;;;5.45;;
56373;SDS011;58212;47.034;7.376;2023-02-28T03:56:47;7.95;;;6.35;;
56373;SDS011;58212;47.034;7.376;2023-02-28T03:59:20;7.40;;;6.35;;
56373;SDS011;58212;47.034;7.376;2023-02-28T04:01:53;7.43;;;6.70;;
56373;SDS011;58212;47.034;7.376;2023-02-28T04:04:20;7.70;;;6.70;;
56373;SDS011;58212;47.034;7.376;2023-02-28T04:06:49;7.68;;;6.50;;
56373;SDS011;58212;47.034;7.376;2023-02-28T04:09:18;7.45;;;6.75;;
56373;SDS011;58212;47.034;7.376;2023-02-28T04:11:48;7.40;;;6.70;;
56373;SDS011;58212;47.034;7.376;2023-02-28T04:14:18;7.43;;;6.67;;
56373;SDS011;58212;47.034;7.376;2023-02-28T04:16:45;7.35;;;6.65;;
56373;SDS011;58212;47.034;7.376;2023-02-28T04:19:12;6.90;;;6.22;;
56373;SDS011;58212;47.034;7.376;2023-02-28T04:21:41;7.97;;;7.28;;
56373;SDS011;58212;47.034;7.376;2023-02-28T04:24:09;7.30;;;6.65;;
56373;SDS011;58212;47.034;7.376;2023-02-28T04:26:41;7.88;;;7.13;;
56373;SDS011;58212;47.034;7.376;2023-02-28T04:29:10;8.05;;;7.03;;
56373;SDS011;58212;47.034;7.376;2023-02-28T04:31:38;8.75;;;6.47;;
56373;SDS011;58212;47.034;7.376;2023-02-28T04:34:05;7.55;;;6.80;;
56373;SDS011;58212;47.034;7.376;2023-02-28T04:36:32;7.68;;;6.88;;
56373;SDS011;58212;47.034;7.376;2023-02-28T04:38:59;8.68;;;7.88;;
56373;SDS011;58212;47.034;7.376;2023-02-28T04:41:26;8.13;;;7.35;;
56373;SDS011;58212;47.034;7.376;2023-02-28T04:43:54;7.55;;;6.85;;
56373;SDS011;58212;47.034;7.376;2023-02-28T04:46:22;10.05;;;7.40;;
56373;SDS011;58212;47.034;7.376;2023-02-28T04:48:51;9.57;;;8.57;;
56373;SDS011;58212;47.034;7.376;2023-02-28T04:51:18;8.40;;;7.30;;
56373;SDS011;58212;47.034;7.376;2023-02-28T04:53:46;8.57;;;7.67;;
56373;SDS011;58212;47.034;7.376;2023-02-28T04:56:14;7.68;;;6.97;;
56373;SDS011;58212;47.034;7.376;2023-02-28T04:58:45;8.65;;;7.13;;
56373;SDS011;58212;47.034;7.376;2023-02-28T05:01:19;7.75;;;7.00;;
56373;SDS011;58212;47.034;7.376;2023-02-28T05:03:48;8.30;;;7.20;;
56373;SDS011;58212;47.034;7.376;2023-02-28T05:06:15;8.98;;;7.63;;
56373;SDS011;58212;47.034;7.376;2023-02-28T05:08:45;7.75;;;7.05;;
56373;SDS011;58212;47.034;7.376;2023-02-28T05:11:13;9.15;;;8.13;;
56373;SDS011;58212;47.034;7.376;2023-02-28T05:13:44;9.20;;;8.27;;
56373;SDS011;58212;47.034;7.376;2023-02-28T05:16:11;10.15;;;8.75;;
56373;SDS011;58212;47.034;7.376;2023-02-28T05:18:41;8.53;;;7.73;;
56373;SDS011;58212;47.034;7.376;2023-02-28T05:21:17;10.20;;;8.98;;
56373;SDS011;58212;47.034;7.376;2023-02-28T05:23:52;9.15;;;8.13;;
56373;SDS011;58212;47.034;7.376;2023-02-28T05:26:20;9.50;;;8.60;;
56373;SDS011;58212;47.034;7.376;2023-02-28T05:28:51;8.90;;;7.97;;
56373;SDS011;58212;47.034;7.376;2023-02-28T05:31:43;8.18;;;7.38;;
56373;SDS011;58212;47.034;7.376;2023-02-28T05:34:14;8.05;;;7.25;;
56373;SDS011;58212;47.034;7.376;2023-02-28T05:36:41;8.85;;;7.95;;
56373;SDS011;58212;47.034;7.376;2023-02-28T05:39:08;8.43;;;7.63;;
56373;SDS011;58212;47.034;7.376;2023-02-28T05:41:39;8.18;;;7.38;;
56373;SDS011;58212;47.034;7.376;2023-02-28T05:44:31;9.02;;;7.72;;
56373;SDS011;58212;47.034;7.376;2023-02-28T05:46:59;8.57;;;7.78;;
56373;SDS011;58212;47.034;7.376;2023-02-28T05:49:27;9.05;;;8.15;;
56373;SDS011;58212;47.034;7.376;2023-02-28T05:51:55;8.65;;;7.35;;
56373;SDS011;58212;47.034;7.376;2023-02-28T05:54:22;8.50;;;7.60;;
56373;SDS011;58212;47.034;7.376;2023-02-28T05:56:50;8.40;;;7.50;;
56373;SDS011;58212;47.034;7.376;2023-02-28T05:59:17;9.15;;;8.27;;
56373;SDS011;58212;47.034;7.376;2023-02-28T06:01:44;9.23;;;7.35;;
56373;SDS011;58212;47.034;7.376;2023-02-28T06:04:14;9.15;;;8.25;;
56373;SDS011;58212;47.034;7.376;2023-02-28T06:06:45;8.60;;;7.70;;
56373;SDS011;58212;47.034;7.376;2023-02-28T06:09:12;9.80;;;8.13;;
56373;SDS011;58212;47.034;7.376;2023-02-28T06:11:40;9.75;;;8.18;;
56373;SDS011;58212;47.034;7.376;2023-02-28T06:14:09;8.48;;;7.63;;
56373;SDS011;58212;47.034;7.376;2023-02-28T06:16:40;8.70;;;7.90;;
56373;SDS011;58212;47.034;7.376;2023-02-28T06:19:09;9.30;;;8.40;;
56373;SDS011;58212;47.034;7.376;2023-02-28T06:22:03;9.57;;;8.02;;
56373;SDS011;58212;47.034;7.376;2023-02-28T06:24:30;9.05;;;7.97;;
56373;SDS011;58212;47.034;7.376;2023-02-28T06:26:57;8.75;;;7.95;;
56373;SDS011;58212;47.034;7.376;2023-02-28T06:29:30;9.23;;;8.18;;
56373;SDS011;58212;47.034;7.376;2023-02-28T06:31:59;9.00;;;7.97;;
56373;SDS011;58212;47.034;7.376;2023-02-28T06:34:26;8.98;;;7.95;;
56373;SDS011;58212;47.034;7.376;2023-02-28T06:36:53;9.60;;;8.27;;
56373;SDS011;58212;47.034;7.376;2023-02-28T06:39:21;8.55;;;7.72;;
56373;SDS011;58212;47.034;7.376;2023-02-28T06:41:48;8.88;;;8.07;;
56373;SDS011;58212;47.034;7.376;2023-02-28T06:44:18;9.00;;;8.18;;
56373;SDS011;58212;47.034;7.376;2023-02-28T06:46:45;9.00;;;7.93;;
56373;SDS011;58212;47.034;7.376;2023-02-28T06:49:13;8.85;;;8.00;;
56373;SDS011;58212;47.034;7.376;2023-02-28T06:51:41;8.90;;;8.05;;
56373;SDS011;58212;47.034;7.376;2023-02-28T06:54:11;8.82;;;7.93;;
56373;SDS011;58212;47.034;7.376;2023-02-28T06:56:40;8.43;;;7.72;;
56373;SDS011;58212;47.034;7.376;2023-02-28T06:59:07;9.07;;;8.18;;
56373;SDS011;58212;47.034;7.376;2023-02-28T07:01:34;8.57;;;7.70;;
56373;SDS011;58212;47.034;7.376;2023-02-28T07:04:01;9.35;;;8.45;;
56373;SDS011;58212;47.034;7.376;2023-02-28T07:06:28;8.95;;;8.05;;
56373;SDS011;58212;47.034;7.376;2023-02-28T07:08:55;10.15;;;8.40;;
56373;SDS011;58212;47.034;7.376;2023-02-28T07:11:23;8.77;;;7.97;;
56373;SDS011;58212;47.034;7.376;2023-02-28T07:13:53;9.48;;;8.57;;
56373;SDS011;58212;47.034;7.376;2023-02-28T07:16:21;9.88;;;8.10;;
56373;SDS011;58212;47.034;7.376;2023-02-28T07:18:49;9.20;;;7.60;;
56373;SDS011;58212;47.034;7.376;2023-02-28T07:21:18;9.20;;;8.38;;
56373;SDS011;58212;47.034;7.376;2023-02-28T07:23:45;9.32;;;8.18;;
56373;SDS011;58212;47.034;7.376;2023-02-28T07:26:13;8.77;;;7.90;;
56373;SDS011;58212;47.034;7.376;2023-02-28T07:28:42;8.48;;;7.68;;
56373;SDS011;58212;47.034;7.376;2023-02-28T07:31:12;8.63;;;7.88;;
56373;SDS011;58212;47.034;7.376;2023-02-28T07:33:40;8.88;;;8.02;;
56373;SDS011;58212;47.034;7.376;2023-02-28T07:36:08;8.55;;;7.43;;
56373;SDS011;58212;47.034;7.376;2023-02-28T07:38:40;10.32;;;8.40;;
56373;SDS011;58212;47.034;7.376;2023-02-28T07:41:08;8.57;;;7.68;;
56373;SDS011;58212;47.034;7.376;2023-02-28T07:43:36;8.32;;;7.53;;
56373;SDS011;58212;47.034;7.376;2023-02-28T07:46:03;8.20;;;7.40;;
56373;SDS011;58212;47.034;7.376;2023-02-28T07:48:32;8.75;;;7.82;;
56373;SDS011;58212;47.034;7.376;2023-02-28T07:51:00;8.55;;;7.75;;
56373;SDS011;58212;47.034;7.376;2023-02-28T07:53:27;8.65;;;7.75;;
56373;SDS011;58212;47.034;7.376;2023-02-28T07:55:55;9.82;;;8.60;;
56373;SDS011;58212;47.034;7.376;2023-02-28T07:58:23;8.13;;;7.32;;
56373;SDS011;58212;47.034;7.376;2023-02-28T08:00:50;10.43;;;9.35;;
56373;SDS011;58212;47.034;7.376;2023-02-28T08:03:17;8.52;;;7.70;;
56373;SDS011;58212;47.034;7.376;2023-02-28T08:05:48;8.15;;;7.35;;
56373;SDS011;58212;47.034;7.376;2023-02-28T08:08:17;9.70;;;8.70;;
56373;SDS011;58212;47.034;7.376;2023-02-28T08:10:44;9.48;;;8.57;;
56373;SDS011;58212;47.034;7.376;2023-02-28T08:13:11;9.63;;;8.73;;
56373;SDS011;58212;47.034;7.376;2023-02-28T08:15:39;10.05;;;8.40;;
56373;SDS011;58212;47.034;7.376;2023-02-28T08:18:07;9.52;;;8.05;;
56373;SDS011;58212;47.034;7.376;2023-02-28T08:20:34;9.57;;;8.60;;
56373;SDS011;58212;47.034;7.376;2023-02-28T08:23:02;9.75;;;8.85;;
56373;SDS011;58212;47.034;7.376;2023-02-28T08:25:29;9.50;;;8.55;;
56373;SDS011;58212;47.034;7.376;2023-02-28T08:28:00;9.73;;;8.55;;
56373;SDS011;58212;47.034;7.376;2023-02-28T08:30:27;10.50;;;9.40;;
56373;SDS011;58212;47.034;7.376;2023-02-28T08:32:54;10.13;;;8.48;;
56373;SDS011;58212;47.034;7.376;2023-02-28T08:35:21;8.80;;;8.00;;
56373;SDS011;58212;47.034;7.376;2023-02-28T08:37:48;9.65;;;8.75;;
56373;SDS011;58212;47.034;7.376;2023-02-28T08:40:16;9.88;;;8.93;;
56373;SDS011;58212;47.034;7.376;2023-02-28T08:42:44;10.15;;;8.85;;
56373;SDS011;58212;47.034;7.376;2023-02-28T08:45:11;11.68;;;8.52;;
56373;SDS011;58212;47.034;7.376;2023-02-28T08:47:39;9.15;;;8.23;;
56373;SDS011;58212;47.034;7.376;2023-02-28T08:50:07;8.80;;;7.93;;
56373;SDS011;58212;47.034;7.376;2023-02-28T08:52:34;9.95;;;8.32;;
56373;SDS011;58212;47.034;7.376;2023-02-28T08:55:02;9.48;;;8.38;;
56373;SDS011;58212;47.034;7.376;2023-02-28T08:57:30;9.30;;;8.50;;
56373;SDS011;58212;47.034;7.376;2023-02-28T09:00:01;9.35;;;8.38;;
56373;SDS011;58212;47.034;7.376;2023-02-28T09:02:29;10.25;;;9.25;;
56373;SDS011;58212;47.034;7.376;2023-02-28T09:04:58;9.57;;;8.63;;
56373;SDS011;58212;47.034;7.376;2023-02-28T09:07:50;10.13;;;8.73;;
56373;SDS011;58212;47.034;7.376;2023-02-28T09:10:18;9.55;;;8.60;;
56373;SDS011;58212;47.034;7.376;2023-02-28T09:12:46;9.43;;;8.52;;
56373;SDS011;58212;47.034;7.376;2023-02-28T09:15:13;11.60;;;9.07;;
56373;SDS011;58212;47.034;7.376;2023-02-28T09:17:40;10.40;;;9.38;;
56373;SDS011;58212;47.034;7.376;2023-02-28T09:20:07;10.32;;;9.27;;
56373;SDS011;58212;47.034;7.376;2023-02-28T09:22:36;11.30;;;9.07;;
56373;SDS011;58212;47.034;7.376;2023-02-28T09:25:04;9.45;;;8.45;;
56373;SDS011;58212;47.034;7.376;2023-02-28T09:27:35;9.90;;;8.90;;
56373;SDS011;58212;47.034;7.376;2023-02-28T09:30:04;10.07;;;8.88;;
56373;SDS011;58212;47.034;7.376;2023-02-28T09:32:32;9.88;;;8.88;;
56373;SDS011;58212;47.034;7.376;2023-02-28T09:34:59;9.73;;;8.82;;
56373;SDS011;58212;47.034;7.376;2023-02-28T09:37:26;10.20;;;8.77;;
56373;SDS011;58212;47.034;7.376;2023-02-28T09:39:54;10.73;;;8.48;;
56373;SDS011;58212;47.034;7.376;2023-02-28T09:42:21;10.15;;;9.15;;
56373;SDS011;58212;47.034;7.376;2023-02-28T09:44:56;9.50;;;8.60;;
56373;SDS011;58212;47.034;7.376;2023-02-28T09:47:30;23.52;;;10.10;;
56373;SDS011;58212;47.034;7.376;2023-02-28T09:50:03;9.88;;;8.68;;
56373;SDS011;58212;47.034;7.376;2023-02-28T09:52:37;10.65;;;9.55;;
56373;SDS011;58212;47.034;7.376;2023-02-28T09:55:10;11.90;;;10.15;;
56373;SDS011;58212;47.034;7.376;2023-02-28T09:57:47;9.85;;;8.95;;
56373;SDS011;58212;47.034;7.376;2023-02-28T10:00:18;9.50;;;8.48;;
56373;SDS011;58212;47.034;7.376;2023-02-28T10:02:56;11.05;;;9.95;;
56373;SDS011;58212;47.034;7.376;2023-02-28T10:05:33;10.10;;;9.18;;
56373;SDS011;58212;47.034;7.376;2023-02-28T10:08:07;9.82;;;8.93;;
56373;SDS011;58212;47.034;7.376;2023-02-28T10:10:40;9.65;;;8.73;;
56373;SDS011;58212;47.034;7.376;2023-02-28T10:13:13;10.40;;;9.38;;
56373;SDS011;58212;47.034;7.376;2023-02-28T10:15:46;10.02;;;9.07;;
56373;SDS011;58212;47.034;7.376;2023-02-28T10:18:22;10.40;;;9.32;;
56373;SDS011;58212;47.034;7.376;2023-02-28T10:21:19;22.63;;;20.23;;
56373;SDS011;58212;47.034;7.376;2023-02-28T10:23:49;10.40;;;9.40;;
56373;SDS011;58212;47.034;7.376;2023-02-28T10:26:25;25.73;;;22.83;;
56373;SDS011;58212;47.034;7.376;2023-02-28T10:28:54;12.02;;;10.90;;
56373;SDS011;58212;47.034;7.376;2023-02-28T10:31:22;42.05;;;33.05;;
56373;SDS011;58212;47.034;7.376;2023-02-28T10:33:50;26.55;;;18.08;;
56373;SDS011;58212;47.034;7.376;2023-02-28T10:36:18;14.30;;;12.70;;
56373;SDS011;58212;47.034;7.376;2023-02-28T10:38:47;10.60;;;9.60;;
56373;SDS011;58212;47.034;7.376;2023-02-28T10:41:26;10.27;;;9.27;;
56373;SDS011;58212;47.034;7.376;2023-02-28T10:44:12;15.43;;;13.85;;
56373;SDS011;58212;47.034;7.376;2023-02-28T10:46:41;12.27;;;10.98;;
56373;SDS011;58212;47.034;7.376;2023-02-28T10:49:14;10.65;;;9.70;;
56373;SDS011;58212;47.034;7.376;2023-02-28T10:51:44;9.82;;;8.82;;
56373;SDS011;58212;47.034;7.376;2023-02-28T10:54:16;10.98;;;9.85;;
56373;SDS011;58212;47.034;7.376;2023-02-28T10:56:59;12.07;;;10.88;;
56373;SDS011;58212;47.034;7.376;2023-02-28T10:59:35;10.55;;;9.57;;
56373;SDS011;58212;47.034;7.376;2023-02-28T11:02:08;12.02;;;10.75;;
56373;SDS011;58212;47.034;7.376;2023-02-28T11:04:59;14.73;;;13.30;;
56373;SDS011;58212;47.034;7.376;2023-02-28T11:07:26;14.90;;;13.40;;
56373;SDS011;58212;47.034;7.376;2023-02-28T11:09:55;11.68;;;9.70;;
56373;SDS011;58212;47.034;7.376;2023-02-28T11:12:24;9.95;;;8.93;;
56373;SDS011;58212;47.034;7.376;2023-02-28T11:14:54;10.57;;;9.57;;
56373;SDS011;58212;47.034;7.376;2023-02-28T11:17:24;11.02;;;10.02;;
56373;SDS011;58212;47.034;7.376;2023-02-28T11:19:55;10.70;;;9.63;;
56373;SDS011;58212;47.034;7.376;2023-02-28T11:22:26;11.13;;;10.02;;
56373;SDS011;58212;47.034;7.376;2023-02-28T11:24:56;9.98;;;9.07;;
56373;SDS011;58212;47.034;7.376;2023-02-28T11:27:26;11.10;;;9.93;;
56373;SDS011;58212;47.034;7.376;2023-02-28T11:30:23;10.32;;;9.32;;
56373;SDS011;58212;47.034;7.376;2023-02-28T11:32:55;9.68;;;8.73;;
56373;SDS011;58212;47.034;7.376;2023-02-28T11:35:23;11.05;;;9.73;;
56373;SDS011;58212;47.034;7.376;2023-02-28T11:37:56;10.90;;;9.57;;
56373;SDS011;58212;47.034;7.376;2023-02-28T11:40:25;10.43;;;9.43;;
56373;SDS011;58212;47.034;7.376;2023-02-28T11:43:07;10.43;;;9.43;;
56373;SDS011;58212;47.034;7.376;2023-02-28T11:45:55;10.65;;;9.65;;
56373;SDS011;58212;47.034;7.376;2023-02-28T11:48:38;10.90;;;9.77;;
56373;SDS011;58212;47.034;7.376;2023-02-28T11:51:13;11.98;;;10.13;;
56373;SDS011;58212;47.034;7.376;2023-02-28T11:56:57;10.98;;;9.52;;
56373;SDS011;58212;47.034;7.376;2023-02-28T12:02:26;11.02;;;9.95;;
56373;SDS011;58212;47.034;7.376;2023-02-28T12:05:03;11.77;;;10.68;;
56373;SDS011;58212;47.034;7.376;2023-02-28T12:07:43;11.70;;;10.48;;
56373;SDS011;58212;47.034;7.376;2023-02-28T12:10:21;11.93;;;10.55;;
56373;SDS011;58212;47.034;7.376;2023-02-28T12:12:55;11.70;;;10.48;;
56373;SDS011;58212;47.034;7.376;2023-02-28T12:15:45;10.82;;;9.73;;
56373;SDS011;58212;47.034;7.376;2023-02-28T12:18:27;11.52;;;10.18;;
56373;SDS011;58212;47.034;7.376;2023-02-28T12:21:11;10.85;;;9.73;;
56373;SDS011;58212;47.034;7.376;2023-02-28T12:23:52;11.55;;;10.38;;
56373;SDS011;58212;47.034;7.376;2023-02-28T12:26:36;11.60;;;10.40;;
56373;SDS011;58212;47.034;7.376;2023-02-28T12:29:12;11.85;;;10.55;;
56373;SDS011;58212;47.034;7.376;2023-02-28T12:31:44;25.67;;;11.60;;
56373;SDS011;58212;47.034;7.376;2023-02-28T12:34:42;11.57;;;10.25;;
56373;SDS011;58212;47.034;7.376;2023-02-28T12:37:14;11.80;;;10.60;;
56373;SDS011;58212;47.034;7.376;2023-02-28T12:39:48;11.88;;;10.68;;
56373;SDS011;58212;47.034;7.376;2023-02-28T12:42:24;10.45;;;9.23;;
56373;SDS011;58212;47.034;7.376;2023-02-28T12:44:58;10.82;;;9.80;;
56373;SDS011;58212;47.034;7.376;2023-02-28T12:47:28;10.98;;;9.82;;
56373;SDS011;58212;47.034;7.376;2023-02-28T12:49:56;10.57;;;9.57;;
56373;SDS011;58212;47.034;7.376;2023-02-28T12:52:29;11.65;;;10.45;;
56373;SDS011;58212;47.034;7.376;2023-02-28T12:55:30;11.13;;;10.07;;
56373;SDS011;58212;47.034;7.376;2023-02-28T12:58:08;10.65;;;9.55;;
56373;SDS011;58212;47.034;7.376;2023-02-28T13:00:45;10.95;;;9.85;;
56373;SDS011;58212;47.034;7.376;2023-02-28T13:03:29;10.85;;;9.75;;
56373;SDS011;58212;47.034;7.376;2023-02-28T13:06:12;10.82;;;9.73;;
56373;SDS011;58212;47.034;7.376;2023-02-28T13:09:08;10.70;;;9.70;;
56373;SDS011;58212;47.034;7.376;2023-02-28T13:11:39;10.63;;;9.57;;
56373;SDS011;58212;47.034;7.376;2023-02-28T13:14:18;10.48;;;9.43;;
56373;SDS011;58212;47.034;7.376;2023-02-28T13:16:55;11.65;;;9.65;;
56373;SDS011;58212;47.034;7.376;2023-02-28T13:19:26;10.75;;;9.75;;
56373;SDS011;58212;47.034;7.376;2023-02-28T13:21:56;10.90;;;9.80;;
56373;SDS011;58212;47.034;7.376;2023-02-28T13:24:37;11.05;;;9.95;;
56373;SDS011;58212;47.034;7.376;2023-02-28T13:30:01;11.05;;;9.95;;
56373;SDS011;58212;47.034;7.376;2023-02-28T13:32:44;9.98;;;9.02;;
56373;SDS011;58212;47.034;7.376;2023-02-28T13:35:14;10.60;;;9.57;;
56373;SDS011;58212;47.034;7.376;2023-02-28T13:38:09;10.43;;;9.23;;
56373;SDS011;58212;47.034;7.376;2023-02-28T13:40:50;10.02;;;9.13;;
56373;SDS011;58212;47.034;7.376;2023-02-28T13:43:17;10.77;;;9.77;;
56373;SDS011;58212;47.034;7.376;2023-02-28T13:46:06;10.98;;;9.80;;
56373;SDS011;58212;47.034;7.376;2023-02-28T13:48:37;11.18;;;10.07;;
56373;SDS011;58212;47.034;7.376;2023-02-28T13:54:14;10.45;;;9.50;;
56373;SDS011;58212;47.034;7.376;2023-02-28T13:56:51;11.63;;;10.20;;
56373;SDS011;58212;47.034;7.376;2023-02-28T13:59:30;10.77;;;9.68;;
56373;SDS011;58212;47.034;7.376;2023-02-28T14:02:11;11.73;;;10.52;;
56373;SDS011;58212;47.034;7.376;2023-02-28T14:05:00;11.77;;;10.13;;
56373;SDS011;58212;47.034;7.376;2023-02-28T14:07:29;11.20;;;10.02;;
56373;SDS011;58212;47.034;7.376;2023-02-28T14:10:00;10.90;;;9.80;;
56373;SDS011;58212;47.034;7.376;2023-02-28T14:15:30;10.88;;;9.73;;
56373;SDS011;58212;47.034;7.376;2023-02-28T14:18:16;10.82;;;9.73;;
56373;SDS011;58212;47.034;7.376;2023-02-28T14:20:48;10.63;;;9.63;;
56373;SDS011;58212;47.034;7.376;2023-02-28T14:26:33;11.93;;;9.98;;
56373;SDS011;58212;47.034;7.376;2023-02-28T14:29:17;10.57;;;9.57;;
56373;SDS011;58212;47.034;7.376;2023-02-28T14:31:57;10.82;;;9.73;;
56373;SDS011;58212;47.034;7.376;2023-02-28T14:34:35;11.00;;;9.90;;
56373;SDS011;58212;47.034;7.376;2023-02-28T14:37:09;9.73;;;8.82;;
56373;SDS011;58212;47.034;7.376;2023-02-28T14:39:41;11.07;;;9.50;;
56373;SDS011;58212;47.034;7.376;2023-02-28T14:42:28;10.32;;;9.25;;
56373;SDS011;58212;47.034;7.376;2023-02-28T14:44:57;10.85;;;9.75;;
56373;SDS011;58212;47.034;7.376;2023-02-28T14:47:50;10.60;;;9.50;;
56373;SDS011;58212;47.034;7.376;2023-02-28T14:50:19;11.02;;;9.32;;
56373;SDS011;58212;47.034;7.376;2023-02-28T14:53:15;10.13;;;9.13;;
56373;SDS011;58212;47.034;7.376;2023-02-28T14:55:46;9.40;;;8.35;;
56373;SDS011;58212;47.034;7.376;2023-02-28T14:58:21;10.45;;;9.45;;
56373;SDS011;58212;47.034;7.376;2023-02-28T15:00:50;10.25;;;9.15;;
56373;SDS011;58212;47.034;7.376;2023-02-28T15:03:19;10.93;;;9.73;;
56373;SDS011;58212;47.034;7.376;2023-02-28T15:05:52;11.05;;;9.85;;
56373;SDS011;58212;47.034;7.376;2023-02-28T15:08:21;10.85;;;9.77;;
56373;SDS011;58212;47.034;7.376;2023-02-28T15:10:53;10.93;;;9.82;;
56373;SDS011;58212;47.034;7.376;2023-02-28T15:13:23;10.27;;;9.27;;
56373;SDS011;58212;47.034;7.376;2023-02-28T15:16:03;11.23;;;10.13;;
56373;SDS011;58212;47.034;7.376;2023-02-28T15:18:33;10.90;;;9.82;;
56373;SDS011;58212;47.034;7.376;2023-02-28T15:21:11;11.35;;;10.15;;
56373;SDS011;58212;47.034;7.376;2023-02-28T15:23:44;10.32;;;9.32;;
56373;SDS011;58212;47.034;7.376;2023-02-28T15:26:13;16.30;;;11.00;;
56373;SDS011;58212;47.034;7.376;2023-02-28T15:28:42;13.98;;;11.70;;
56373;SDS011;58212;47.034;7.376;2023-02-28T15:31:18;10.10;;;9.02;;
56373;SDS011;58212;47.034;7.376;2023-02-28T15:33:54;12.55;;;10.00;;
56373;SDS011;58212;47.034;7.376;2023-02-28T15:36:26;11.68;;;9.68;;